sensor_id;sensor_type;location;lat;lon;timestamp;pressure;altitude;pressure_sealevel;temperature;humidity
47809;BME280;33573;38.790;-77.084;2023-08-07T00:00:18;101063.68;;;30.67;45.21
47809;BME280;33573;38.790;-77.084;2023-08-07T00:02:44;101060.02;;;30.55;45.11
47809;BME280;33573;38.790;-77.084;2023-08-07T00:05:09;101067.50;;;30.75;45.69
47809;BME280;33573;38.790;-77.084;2023-08-07T00:07:34;101074.13;;;30.27;46.77
47809;BME280;33573;38.790;-77.084;2023-08-07T00:09:59;101072.71;;;30.12;46.36
47809;BME280;33573;38.790;-77.084;2023-08-07T00:12:24;101063.98;;;30.92;44.90
47809;BME280;33573;38.790;-77.084;2023-08-07T00:14:51;101072.63;;;30.72;44.73
47809;BME280;33573;38.790;-77.084;2023-08-07T00:17:15;101065.19;;;31.23;44.58
47809;BME280;33573;38.790;-77.084;2023-08-07T00:19:41;101061.01;;;30.95;44.62
47809;BME280;33573;38.790;-77.084;2023-08-07T00:22:06;101063.01;;;31.04;44.55
47809;BME280;33573;38.790;-77.084;2023-08-07T00:24:32;101053.26;;;31.27;44.59
47809;BME280;33573;38.790;-77.084;2023-08-07T00:26:57;101042.59;;;31.12;44.25
47809;BME280;33573;38.790;-77.084;2023-08-07T00:29:22;101039.20;;;31.32;44.28
47809;BME280;33573;38.790;-77.084;2023-08-07T00:31:47;101037.09;;;31.12;44.24
47809;BME280;33573;38.790;-77.084;2023-08-07T00:34:13;101030.61;;;31.14;44.25
47809;BME280;33573;38.790;-77.084;2023-08-07T00:36:38;101030.43;;;30.91;44.18
47809;BME280;33573;38.790;-77.084;2023-08-07T00:39:04;101027.52;;;31.07;44.38
47809;BME280;33573;38.790;-77.084;2023-08-07T00:41:29;101024.53;;;30.82;45.23
47809;BME280;33573;38.790;-77.084;2023-08-07T00:43:54;101025.02;;;31.22;45.28
47809;BME280;33573;38.790;-77.084;2023-08-07T00:46:20;101030.13;;;30.85;45.82
47809;BME280;33573;38.790;-77.084;2023-08-07T00:48:45;101024.46;;;31.04;44.54
47809;BME280;33573;38.790;-77.084;2023-08-07T00:51:10;101027.29;;;30.57;45.18
47809;BME280;33573;38.790;-77.084;2023-08-07T00:53:38;101027.88;;;31.04;44.86
47809;BME280;33573;38.790;-77.084;2023-08-07T00:56:01;101034.42;;;30.21;46.00
47809;BME280;33573;38.790;-77.084;2023-08-07T00:58:26;101034.26;;;30.57;45.71
47809;BME280;33573;38.790;-77.084;2023-08-07T01:00:52;101038.09;;;30.79;44.80
47809;BME280;33573;38.790;-77.084;2023-08-07T01:03:17;101039.59;;;30.72;45.28
47809;BME280;33573;38.790;-77.084;2023-08-07T01:05:42;101035.94;;;31.46;44.34
47809;BME280;33573;38.790;-77.084;2023-08-07T01:08:08;101039.67;;;31.50;44.60
47809;BME280;33573;38.790;-77.084;2023-08-07T01:10:40;101050.20;;;30.85;45.04
47809;BME280;33573;38.790;-77.084;2023-08-07T01:13:04;101060.44;;;31.11;46.07
47809;BME280;33573;38.790;-77.084;2023-08-07T01:15:44;101067.76;;;30.88;46.12
47809;BME280;33573;38.790;-77.084;2023-08-07T01:17:50;101075.60;;;30.02;47.72
47809;BME280;33573;38.790;-77.084;2023-08-07T01:20:14;101092.34;;;29.36;49.72
47809;BME280;33573;38.790;-77.084;2023-08-07T01:22:39;101116.12;;;28.54;51.98
47809;BME280;33573;38.790;-77.084;2023-08-07T01:25:05;101131.91;;;28.51;51.98
47809;BME280;33573;38.790;-77.084;2023-08-07T01:27:35;101136.45;;;29.56;48.97
47809;BME280;33573;38.790;-77.084;2023-08-07T01:30:00;101111.99;;;30.24;47.65
47809;BME280;33573;38.790;-77.084;2023-08-07T01:32:26;101094.36;;;30.54;46.71
47809;BME280;33573;38.790;-77.084;2023-08-07T01:34:48;101095.80;;;30.94;46.00
47809;BME280;33573;38.790;-77.084;2023-08-07T01:37:13;101091.60;;;31.13;45.54
47809;BME280;33573;38.790;-77.084;2023-08-07T01:39:37;101088.78;;;31.02;45.22
47809;BME280;33573;38.790;-77.084;2023-08-07T01:42:04;101089.95;;;31.09;44.97
47809;BME280;33573;38.790;-77.084;2023-08-07T01:44:28;101096.22;;;31.14;44.84
47809;BME280;33573;38.790;-77.084;2023-08-07T01:46:54;101111.25;;;31.25;44.62
47809;BME280;33573;38.790;-77.084;2023-08-07T01:49:19;101128.56;;;30.91;45.32
47809;BME280;33573;38.790;-77.084;2023-08-07T01:51:45;101109.82;;;31.36;44.86
47809;BME280;33573;38.790;-77.084;2023-08-07T01:54:11;101106.02;;;31.37;44.34
47809;BME280;33573;38.790;-77.084;2023-08-07T01:56:36;101110.74;;;31.23;44.11
47809;BME280;33573;38.790;-77.084;2023-08-07T01:59:02;101108.60;;;31.26;44.03
47809;BME280;33573;38.790;-77.084;2023-08-07T02:01:27;101107.40;;;31.76;43.52
47809;BME280;33573;38.790;-77.084;2023-08-07T02:03:52;101105.69;;;31.48;43.54
47809;BME280;33573;38.790;-77.084;2023-08-07T02:06:17;101109.34;;;31.54;43.40
47809;BME280;33573;38.790;-77.084;2023-08-07T02:08:43;101114.54;;;31.71;43.09
47809;BME280;33573;38.790;-77.084;2023-08-07T02:11:07;101126.68;;;32.01;42.89
47809;BME280;33573;38.790;-77.084;2023-08-07T02:13:32;101127.85;;;31.80;42.85
47809;BME280;33573;38.790;-77.084;2023-08-07T02:15:58;101109.20;;;31.90;43.07
47809;BME280;33573;38.790;-77.084;2023-08-07T02:18:23;101097.34;;;31.71;42.97
47809;BME280;33573;38.790;-77.084;2023-08-07T02:20:49;101090.43;;;31.66;43.02
47809;BME280;33573;38.790;-77.084;2023-08-07T02:23:14;101086.63;;;31.52;43.15
47809;BME280;33573;38.790;-77.084;2023-08-07T02:25:40;101092.38;;;31.81;42.65
47809;BME280;33573;38.790;-77.084;2023-08-07T02:28:06;101099.89;;;32.09;42.15
47809;BME280;33573;38.790;-77.084;2023-08-07T02:30:31;101096.23;;;31.71;42.36
47809;BME280;33573;38.790;-77.084;2023-08-07T02:32:57;101096.22;;;31.60;42.87
47809;BME280;33573;38.790;-77.084;2023-08-07T02:35:23;101098.08;;;29.78;45.81
47809;BME280;33573;38.790;-77.084;2023-08-07T02:37:48;101106.32;;;29.62;46.98
47809;BME280;33573;38.790;-77.084;2023-08-07T02:40:13;101111.41;;;28.80;49.06
47809;BME280;33573;38.790;-77.084;2023-08-07T02:42:38;101111.13;;;27.91;50.21
47809;BME280;33573;38.790;-77.084;2023-08-07T02:45:04;101112.27;;;28.10;49.96
47809;BME280;33573;38.790;-77.084;2023-08-07T02:47:28;101108.12;;;28.11;50.36
47809;BME280;33573;38.790;-77.084;2023-08-07T02:49:54;101108.20;;;28.49;50.18
47809;BME280;33573;38.790;-77.084;2023-08-07T02:52:19;101108.23;;;29.06;48.22
47809;BME280;33573;38.790;-77.084;2023-08-07T02:54:44;101113.15;;;28.22;50.02
47809;BME280;33573;38.790;-77.084;2023-08-07T02:57:09;101102.26;;;28.44;50.08
47809;BME280;33573;38.790;-77.084;2023-08-07T02:59:35;101104.19;;;28.22;49.69
47809;BME280;33573;38.790;-77.084;2023-08-07T03:02:00;101104.80;;;29.13;48.96
47809;BME280;33573;38.790;-77.084;2023-08-07T03:04:26;101100.64;;;28.84;48.77
47809;BME280;33573;38.790;-77.084;2023-08-07T03:06:51;101094.71;;;28.73;49.18
47809;BME280;33573;38.790;-77.084;2023-08-07T03:09:17;101093.47;;;28.21;50.10
47809;BME280;33573;38.790;-77.084;2023-08-07T03:11:42;101091.08;;;28.44;49.34
47809;BME280;33573;38.790;-77.084;2023-08-07T03:14:08;101090.04;;;29.31;47.76
47809;BME280;33573;38.790;-77.084;2023-08-07T03:16:33;101090.82;;;29.02;48.78
47809;BME280;33573;38.790;-77.084;2023-08-07T03:18:59;101094.08;;;27.78;51.19
47809;BME280;33573;38.790;-77.084;2023-08-07T03:21:24;101092.18;;;28.78;48.99
47809;BME280;33573;38.790;-77.084;2023-08-07T03:23:51;101088.77;;;28.57;49.94
47809;BME280;33573;38.790;-77.084;2023-08-07T03:26:16;101082.45;;;28.36;50.49
47809;BME280;33573;38.790;-77.084;2023-08-07T03:28:41;101084.73;;;28.87;49.37
47809;BME280;33573;38.790;-77.084;2023-08-07T03:31:06;101083.79;;;28.61;49.68
47809;BME280;33573;38.790;-77.084;2023-08-07T03:33:32;101080.00;;;28.48;49.60
47809;BME280;33573;38.790;-77.084;2023-08-07T03:35:57;101073.00;;;28.53;50.02
47809;BME280;33573;38.790;-77.084;2023-08-07T03:38:22;101067.50;;;29.52;48.75
47809;BME280;33573;38.790;-77.084;2023-08-07T03:40:48;101058.46;;;28.30;50.35
47809;BME280;33573;38.790;-77.084;2023-08-07T03:43:14;101046.25;;;28.62;49.86
47809;BME280;33573;38.790;-77.084;2023-08-07T03:45:39;101044.36;;;29.08;48.48
47809;BME280;33573;38.790;-77.084;2023-08-07T03:48:04;101048.93;;;27.75;51.65
47809;BME280;33573;38.790;-77.084;2023-08-07T03:50:29;101049.56;;;28.94;49.04
47809;BME280;33573;38.790;-77.084;2023-08-07T03:52:55;101050.32;;;27.73;50.57
47809;BME280;33573;38.790;-77.084;2023-08-07T03:55:20;101051.48;;;27.83;50.56
47809;BME280;33573;38.790;-77.084;2023-08-07T03:57:51;101047.34;;;27.99;50.77
47809;BME280;33573;38.790;-77.084;2023-08-07T04:00:12;101045.92;;;28.17;50.04
47809;BME280;33573;38.790;-77.084;2023-08-07T04:02:37;101046.76;;;28.41;50.17
47809;BME280;33573;38.790;-77.084;2023-08-07T04:05:02;101053.49;;;28.97;48.95
47809;BME280;33573;38.790;-77.084;2023-08-07T04:07:27;101058.20;;;28.67;49.94
47809;BME280;33573;38.790;-77.084;2023-08-07T04:09:53;101051.95;;;27.98;50.22
47809;BME280;33573;38.790;-77.084;2023-08-07T04:12:18;101040.68;;;28.84;49.01
47809;BME280;33573;38.790;-77.084;2023-08-07T04:14:44;101043.93;;;28.17;50.70
47809;BME280;33573;38.790;-77.084;2023-08-07T04:17:09;101047.26;;;28.26;49.73
47809;BME280;33573;38.790;-77.084;2023-08-07T04:19:34;101047.19;;;28.82;49.83
47809;BME280;33573;38.790;-77.084;2023-08-07T04:21:59;101047.27;;;27.70;51.37
47809;BME280;33573;38.790;-77.084;2023-08-07T04:24:25;101042.73;;;28.29;49.62
47809;BME280;33573;38.790;-77.084;2023-08-07T04:26:50;101048.92;;;27.91;50.69
47809;BME280;33573;38.790;-77.084;2023-08-07T04:29:15;101049.60;;;28.70;49.41
47809;BME280;33573;38.790;-77.084;2023-08-07T04:31:40;101050.97;;;28.09;50.72
47809;BME280;33573;38.790;-77.084;2023-08-07T04:34:06;101056.50;;;27.75;51.33
47809;BME280;33573;38.790;-77.084;2023-08-07T04:36:31;101055.42;;;27.66;51.18
47809;BME280;33573;38.790;-77.084;2023-08-07T04:38:56;101053.72;;;27.78;51.55
47809;BME280;33573;38.790;-77.084;2023-08-07T04:41:22;101051.65;;;27.63;51.29
47809;BME280;33573;38.790;-77.084;2023-08-07T04:43:47;101058.30;;;28.04;51.29
47809;BME280;33573;38.790;-77.084;2023-08-07T04:46:13;101048.44;;;28.26;50.42
47809;BME280;33573;38.790;-77.084;2023-08-07T04:48:38;101048.81;;;28.00;51.19
47809;BME280;33573;38.790;-77.084;2023-08-07T04:51:04;101044.05;;;28.45;50.04
47809;BME280;33573;38.790;-77.084;2023-08-07T04:53:29;101045.31;;;28.78;49.32
47809;BME280;33573;38.790;-77.084;2023-08-07T04:55:55;101043.20;;;27.77;50.27
47809;BME280;33573;38.790;-77.084;2023-08-07T04:58:21;101042.90;;;28.03;50.94
47809;BME280;33573;38.790;-77.084;2023-08-07T05:00:45;101036.75;;;27.91;50.99
47809;BME280;33573;38.790;-77.084;2023-08-07T05:03:11;101026.70;;;28.14;50.24
47809;BME280;33573;38.790;-77.084;2023-08-07T05:05:36;101025.15;;;27.65;50.89
47809;BME280;33573;38.790;-77.084;2023-08-07T05:08:01;101024.88;;;27.85;51.02
47809;BME280;33573;38.790;-77.084;2023-08-07T05:10:26;101022.38;;;27.94;50.88
47809;BME280;33573;38.790;-77.084;2023-08-07T05:12:52;101016.72;;;27.23;51.28
47809;BME280;33573;38.790;-77.084;2023-08-07T05:15:17;101014.88;;;26.45;53.35
47809;BME280;33573;38.790;-77.084;2023-08-07T05:17:42;101017.84;;;27.32;52.33
47809;BME280;33573;38.790;-77.084;2023-08-07T05:20:08;101017.50;;;27.22;51.91
47809;BME280;33573;38.790;-77.084;2023-08-07T05:22:33;101012.95;;;27.41;51.72
47809;BME280;33573;38.790;-77.084;2023-08-07T05:24:58;101005.72;;;27.76;51.62
47809;BME280;33573;38.790;-77.084;2023-08-07T05:27:23;100998.95;;;27.58;51.69
47809;BME280;33573;38.790;-77.084;2023-08-07T05:29:48;101000.64;;;26.90;52.68
47809;BME280;33573;38.790;-77.084;2023-08-07T05:32:14;100999.02;;;26.58;53.38
47809;BME280;33573;38.790;-77.084;2023-08-07T05:34:40;100987.87;;;26.88;52.80
47809;BME280;33573;38.790;-77.084;2023-08-07T05:37:05;100989.89;;;27.42;52.65
47809;BME280;33573;38.790;-77.084;2023-08-07T05:39:30;100987.39;;;28.43;50.45
47809;BME280;33573;38.790;-77.084;2023-08-07T05:41:56;100981.19;;;28.19;50.40
47809;BME280;33573;38.790;-77.084;2023-08-07T05:44:21;100970.08;;;27.76;51.45
47809;BME280;33573;38.790;-77.084;2023-08-07T05:46:46;100971.99;;;27.40;52.77
47809;BME280;33573;38.790;-77.084;2023-08-07T05:49:11;100967.36;;;26.78;53.67
47809;BME280;33573;38.790;-77.084;2023-08-07T05:51:36;100967.70;;;26.43;53.88
47809;BME280;33573;38.790;-77.084;2023-08-07T05:54:02;100962.92;;;26.64;53.89
47809;BME280;33573;38.790;-77.084;2023-08-07T05:56:27;100968.02;;;27.13;53.22
47809;BME280;33573;38.790;-77.084;2023-08-07T05:58:52;100968.19;;;26.47;54.89
47809;BME280;33573;38.790;-77.084;2023-08-07T06:01:18;100969.11;;;26.84;52.98
47809;BME280;33573;38.790;-77.084;2023-08-07T06:03:43;100962.62;;;26.60;53.66
47809;BME280;33573;38.790;-77.084;2023-08-07T06:06:08;100957.55;;;26.95;52.72
47809;BME280;33573;38.790;-77.084;2023-08-07T06:08:33;100954.35;;;26.96;53.17
47809;BME280;33573;38.790;-77.084;2023-08-07T06:10:58;100950.39;;;27.86;51.73
47809;BME280;33573;38.790;-77.084;2023-08-07T06:13:24;100946.97;;;27.48;52.78
47809;BME280;33573;38.790;-77.084;2023-08-07T06:15:49;100943.75;;;27.58;51.55
47809;BME280;33573;38.790;-77.084;2023-08-07T06:18:14;100936.02;;;27.81;51.29
47809;BME280;33573;38.790;-77.084;2023-08-07T06:20:39;100933.77;;;28.51;50.16
47809;BME280;33573;38.790;-77.084;2023-08-07T06:23:04;100935.71;;;28.20;51.01
47809;BME280;33573;38.790;-77.084;2023-08-07T06:25:30;100932.59;;;28.28;50.60
47809;BME280;33573;38.790;-77.084;2023-08-07T06:27:55;100929.95;;;28.24;50.20
47809;BME280;33573;38.790;-77.084;2023-08-07T06:30:20;100932.45;;;27.45;52.43
47809;BME280;33573;38.790;-77.084;2023-08-07T06:32:46;100929.07;;;28.65;49.13
47809;BME280;33573;38.790;-77.084;2023-08-07T06:35:11;100926.11;;;27.70;50.93
47809;BME280;33573;38.790;-77.084;2023-08-07T06:37:36;100931.54;;;28.20;50.87
47809;BME280;33573;38.790;-77.084;2023-08-07T06:40:01;100929.66;;;27.72;51.53
47809;BME280;33573;38.790;-77.084;2023-08-07T06:42:27;100928.78;;;28.50;50.54
47809;BME280;33573;38.790;-77.084;2023-08-07T06:44:52;100929.46;;;28.47;50.48
47809;BME280;33573;38.790;-77.084;2023-08-07T06:47:17;100927.77;;;27.93;51.24
47809;BME280;33573;38.790;-77.084;2023-08-07T06:49:42;100925.67;;;28.26;50.72
47809;BME280;33573;38.790;-77.084;2023-08-07T06:52:08;100928.68;;;28.50;50.29
47809;BME280;33573;38.790;-77.084;2023-08-07T06:54:33;100930.42;;;28.39;50.29
47809;BME280;33573;38.790;-77.084;2023-08-07T06:56:59;100927.67;;;28.69;50.26
47809;BME280;33573;38.790;-77.084;2023-08-07T06:59:24;100923.63;;;28.45;50.32
47809;BME280;33573;38.790;-77.084;2023-08-07T07:01:50;100927.50;;;28.45;50.54
47809;BME280;33573;38.790;-77.084;2023-08-07T07:04:15;100927.13;;;28.50;49.96
47809;BME280;33573;38.790;-77.084;2023-08-07T07:06:40;100929.96;;;27.63;51.70
47809;BME280;33573;38.790;-77.084;2023-08-07T07:09:06;100930.08;;;28.01;51.42
47809;BME280;33573;38.790;-77.084;2023-08-07T07:11:31;100931.49;;;28.11;50.91
47809;BME280;33573;38.790;-77.084;2023-08-07T07:13:57;100935.06;;;28.05;50.67
47809;BME280;33573;38.790;-77.084;2023-08-07T07:16:22;100940.36;;;27.67;52.09
47809;BME280;33573;38.790;-77.084;2023-08-07T07:18:48;100942.98;;;28.39;51.03
47809;BME280;33573;38.790;-77.084;2023-08-07T07:21:13;100934.64;;;27.49;52.50
47809;BME280;33573;38.790;-77.084;2023-08-07T07:23:38;100935.01;;;28.64;50.07
47809;BME280;33573;38.790;-77.084;2023-08-07T07:26:03;100934.51;;;27.86;51.81
47809;BME280;33573;38.790;-77.084;2023-08-07T07:28:29;100933.49;;;28.24;49.79
47809;BME280;33573;38.790;-77.084;2023-08-07T07:30:54;100941.17;;;28.29;50.52
47809;BME280;33573;38.790;-77.084;2023-08-07T07:33:19;100943.02;;;28.76;50.14
47809;BME280;33573;38.790;-77.084;2023-08-07T07:35:44;100940.69;;;28.38;50.08
47809;BME280;33573;38.790;-77.084;2023-08-07T07:38:10;100947.20;;;29.38;49.05
47809;BME280;33573;38.790;-77.084;2023-08-07T07:40:36;100952.18;;;28.72;50.30
47809;BME280;33573;38.790;-77.084;2023-08-07T07:43:01;100944.79;;;27.63;52.23
47809;BME280;33573;38.790;-77.084;2023-08-07T07:45:26;100938.83;;;28.00;50.76
47809;BME280;33573;38.790;-77.084;2023-08-07T07:47:52;100938.02;;;28.86;49.86
47809;BME280;33573;38.790;-77.084;2023-08-07T07:50:17;100935.91;;;28.43;50.55
47809;BME280;33573;38.790;-77.084;2023-08-07T07:52:43;100927.26;;;29.11;49.41
47809;BME280;33573;38.790;-77.084;2023-08-07T07:55:09;100927.57;;;28.06;51.04
47809;BME280;33573;38.790;-77.084;2023-08-07T07:57:34;100934.59;;;28.59;50.25
47809;BME280;33573;38.790;-77.084;2023-08-07T07:59:59;100930.75;;;28.30;50.71
47809;BME280;33573;38.790;-77.084;2023-08-07T08:02:25;100921.96;;;28.46;49.78
47809;BME280;33573;38.790;-77.084;2023-08-07T08:04:51;100922.30;;;27.55;51.84
47809;BME280;33573;38.790;-77.084;2023-08-07T08:07:15;100927.06;;;27.96;51.16
47809;BME280;33573;38.790;-77.084;2023-08-07T08:09:41;100925.08;;;27.70;51.80
47809;BME280;33573;38.790;-77.084;2023-08-07T08:12:07;100918.19;;;28.58;49.71
47809;BME280;33573;38.790;-77.084;2023-08-07T08:14:32;100918.49;;;28.89;49.58
47809;BME280;33573;38.790;-77.084;2023-08-07T08:16:57;100923.03;;;28.14;51.16
47809;BME280;33573;38.790;-77.084;2023-08-07T08:19:22;100927.24;;;27.63;52.10
47809;BME280;33573;38.790;-77.084;2023-08-07T08:21:48;100926.75;;;28.60;50.17
47809;BME280;33573;38.790;-77.084;2023-08-07T08:24:13;100926.27;;;28.02;51.24
47809;BME280;33573;38.790;-77.084;2023-08-07T08:26:38;100922.89;;;28.08;51.15
47809;BME280;33573;38.790;-77.084;2023-08-07T08:29:05;100923.76;;;27.91;51.26
47809;BME280;33573;38.790;-77.084;2023-08-07T08:31:28;100926.86;;;27.91;51.33
47809;BME280;33573;38.790;-77.084;2023-08-07T08:33:54;100925.94;;;27.63;51.65
47809;BME280;33573;38.790;-77.084;2023-08-07T08:36:19;100926.97;;;28.44;50.25
47809;BME280;33573;38.790;-77.084;2023-08-07T08:38:44;100926.41;;;28.69;49.76
47809;BME280;33573;38.790;-77.084;2023-08-07T08:41:10;100932.05;;;27.76;51.73
47809;BME280;33573;38.790;-77.084;2023-08-07T08:43:35;100927.14;;;27.43;52.28
47809;BME280;33573;38.790;-77.084;2023-08-07T08:46:01;100931.19;;;27.76;51.43
47809;BME280;33573;38.790;-77.084;2023-08-07T08:48:26;100938.11;;;28.17;50.86
47809;BME280;33573;38.790;-77.084;2023-08-07T08:50:52;100936.59;;;28.08;51.04
47809;BME280;33573;38.790;-77.084;2023-08-07T08:53:17;100943.61;;;27.66;52.23
47809;BME280;33573;38.790;-77.084;2023-08-07T08:55:42;100943.17;;;27.46;53.04
47809;BME280;33573;38.790;-77.084;2023-08-07T08:58:07;100936.39;;;27.45;52.69
47809;BME280;33573;38.790;-77.084;2023-08-07T09:00:33;100934.63;;;26.94;53.84
47809;BME280;33573;38.790;-77.084;2023-08-07T09:02:58;100936.57;;;27.46;52.85
47809;BME280;33573;38.790;-77.084;2023-08-07T09:05:23;100939.11;;;27.16;52.24
47809;BME280;33573;38.790;-77.084;2023-08-07T09:07:48;100936.05;;;26.80;53.90
47809;BME280;33573;38.790;-77.084;2023-08-07T09:10:14;100932.07;;;27.28;53.00
47809;BME280;33573;38.790;-77.084;2023-08-07T09:12:41;100929.35;;;27.06;53.14
47809;BME280;33573;38.790;-77.084;2023-08-07T09:15:05;100931.13;;;26.89;53.90
47809;BME280;33573;38.790;-77.084;2023-08-07T09:17:31;100918.18;;;26.84;52.68
47809;BME280;33573;38.790;-77.084;2023-08-07T09:19:55;100912.88;;;27.91;51.71
47809;BME280;33573;38.790;-77.084;2023-08-07T09:22:20;100917.21;;;26.87;52.99
47809;BME280;33573;38.790;-77.084;2023-08-07T09:24:45;100913.46;;;27.63;51.35
47809;BME280;33573;38.790;-77.084;2023-08-07T09:27:10;100911.10;;;27.77;51.40
47809;BME280;33573;38.790;-77.084;2023-08-07T09:29:36;100915.81;;;27.01;53.27
47809;BME280;33573;38.790;-77.084;2023-08-07T09:32:07;100909.22;;;26.77;53.71
47809;BME280;33573;38.790;-77.084;2023-08-07T09:34:26;100905.24;;;27.52;52.39
47809;BME280;33573;38.790;-77.084;2023-08-07T09:36:52;100904.74;;;26.80;54.32
47809;BME280;33573;38.790;-77.084;2023-08-07T09:39:23;100904.36;;;26.88;53.93
47809;BME280;33573;38.790;-77.084;2023-08-07T09:41:42;100903.48;;;26.98;53.85
47809;BME280;33573;38.790;-77.084;2023-08-07T09:44:09;100896.82;;;27.04;53.71
47809;BME280;33573;38.790;-77.084;2023-08-07T09:46:42;100895.54;;;27.25;52.64
47809;BME280;33573;38.790;-77.084;2023-08-07T09:48:59;100896.57;;;27.44;52.45
47809;BME280;33573;38.790;-77.084;2023-08-07T09:51:24;100900.24;;;26.57;54.21
47809;BME280;33573;38.790;-77.084;2023-08-07T09:53:50;100901.01;;;27.10;53.17
47809;BME280;33573;38.790;-77.084;2023-08-07T09:56:15;100904.29;;;26.85;53.14
47809;BME280;33573;38.790;-77.084;2023-08-07T09:58:46;100902.69;;;28.01;51.50
47809;BME280;33573;38.790;-77.084;2023-08-07T10:01:08;100903.07;;;28.13;50.44
47809;BME280;33573;38.790;-77.084;2023-08-07T10:03:31;100907.93;;;27.33;52.02
47809;BME280;33573;38.790;-77.084;2023-08-07T10:05:57;100907.00;;;27.89;51.82
47809;BME280;33573;38.790;-77.084;2023-08-07T10:08:22;100902.51;;;27.96;51.50
47809;BME280;33573;38.790;-77.084;2023-08-07T10:10:48;100900.41;;;27.42;52.44
47809;BME280;33573;38.790;-77.084;2023-08-07T10:13:13;100901.96;;;27.33;52.73
47809;BME280;33573;38.790;-77.084;2023-08-07T10:15:39;100903.78;;;28.16;51.56
47809;BME280;33573;38.790;-77.084;2023-08-07T10:18:04;100907.63;;;27.77;52.69
47809;BME280;33573;38.790;-77.084;2023-08-07T10:20:29;100905.00;;;27.57;51.87
47809;BME280;33573;38.790;-77.084;2023-08-07T10:23:00;100902.11;;;27.37;52.73
47809;BME280;33573;38.790;-77.084;2023-08-07T10:25:21;100903.47;;;27.37;52.18
47809;BME280;33573;38.790;-77.084;2023-08-07T10:27:46;100898.64;;;27.13;52.41
47809;BME280;33573;38.790;-77.084;2023-08-07T10:30:13;100898.37;;;27.33;52.59
47809;BME280;33573;38.790;-77.084;2023-08-07T10:32:36;100896.93;;;27.61;52.53
47809;BME280;33573;38.790;-77.084;2023-08-07T10:35:03;100903.38;;;26.54;53.89
47809;BME280;33573;38.790;-77.084;2023-08-07T10:37:38;100901.95;;;26.79;53.68
47809;BME280;33573;38.790;-77.084;2023-08-07T10:40:02;100904.28;;;27.52;52.79
47809;BME280;33573;38.790;-77.084;2023-08-07T10:42:18;100908.37;;;27.27;52.36
47809;BME280;33573;38.790;-77.084;2023-08-07T10:44:48;100909.18;;;27.24;53.28
47809;BME280;33573;38.790;-77.084;2023-08-07T10:47:09;100904.25;;;27.63;52.40
47809;BME280;33573;38.790;-77.084;2023-08-07T10:49:36;100906.62;;;28.10;51.65
47809;BME280;33573;38.790;-77.084;2023-08-07T10:52:01;100906.26;;;27.22;52.77
47809;BME280;33573;38.790;-77.084;2023-08-07T10:54:25;100905.00;;;27.57;52.67
47809;BME280;33573;38.790;-77.084;2023-08-07T10:56:53;100910.59;;;28.32;50.80
47809;BME280;33573;38.790;-77.084;2023-08-07T10:59:15;100917.12;;;27.75;51.49
47809;BME280;33573;38.790;-77.084;2023-08-07T11:01:42;100927.37;;;27.32;52.59
47809;BME280;33573;38.790;-77.084;2023-08-07T11:04:07;100927.73;;;27.14;53.73
47809;BME280;33573;38.790;-77.084;2023-08-07T11:06:32;100923.43;;;27.87;51.56
47809;BME280;33573;38.790;-77.084;2023-08-07T11:08:57;100913.77;;;27.93;52.11
47809;BME280;33573;38.790;-77.084;2023-08-07T11:11:22;100923.16;;;25.97;56.34
47809;BME280;33573;38.790;-77.084;2023-08-07T11:13:48;100926.73;;;27.01;54.21
47809;BME280;33573;38.790;-77.084;2023-08-07T11:16:13;100924.68;;;26.87;54.04
47809;BME280;33573;38.790;-77.084;2023-08-07T11:18:38;100919.57;;;27.22;54.16
47809;BME280;33573;38.790;-77.084;2023-08-07T11:21:04;100921.10;;;26.60;55.13
47809;BME280;33573;38.790;-77.084;2023-08-07T11:23:29;100920.22;;;25.73;57.47
47809;BME280;33573;38.790;-77.084;2023-08-07T11:25:54;100931.16;;;26.92;54.70
47809;BME280;33573;38.790;-77.084;2023-08-07T11:28:19;100944.14;;;27.15;54.30
47809;BME280;33573;38.790;-77.084;2023-08-07T11:30:46;100937.66;;;27.41;52.96
47809;BME280;33573;38.790;-77.084;2023-08-07T11:33:11;100935.21;;;27.83;52.72
47809;BME280;33573;38.790;-77.084;2023-08-07T11:35:41;100936.64;;;26.63;54.76
47809;BME280;33573;38.790;-77.084;2023-08-07T11:38:02;100934.07;;;25.01;58.08
47809;BME280;33573;38.790;-77.084;2023-08-07T11:40:27;100928.78;;;25.34;58.81
47809;BME280;33573;38.790;-77.084;2023-08-07T11:42:52;100921.64;;;25.53;57.01
47809;BME280;33573;38.790;-77.084;2023-08-07T11:45:17;100916.52;;;25.43;58.44
47809;BME280;33573;38.790;-77.084;2023-08-07T11:47:43;100916.69;;;26.21;56.93
47809;BME280;33573;38.790;-77.084;2023-08-07T11:50:10;100910.70;;;25.92;56.99
47809;BME280;33573;38.790;-77.084;2023-08-07T11:52:34;100909.16;;;25.61;57.25
47809;BME280;33573;38.790;-77.084;2023-08-07T11:55:02;100912.43;;;25.82;56.63
47809;BME280;33573;38.790;-77.084;2023-08-07T11:57:25;100911.88;;;25.80;56.21
47809;BME280;33573;38.790;-77.084;2023-08-07T11:59:51;100917.17;;;26.14;56.07
47809;BME280;33573;38.790;-77.084;2023-08-07T12:02:16;100915.18;;;26.24;55.38
47809;BME280;33573;38.790;-77.084;2023-08-07T12:04:41;100913.74;;;24.96;58.15
47809;BME280;33573;38.790;-77.084;2023-08-07T12:07:06;100918.10;;;26.08;56.49
47809;BME280;33573;38.790;-77.084;2023-08-07T12:09:31;100915.43;;;26.52;55.11
47809;BME280;33573;38.790;-77.084;2023-08-07T12:11:57;100925.32;;;26.22;55.67
47809;BME280;33573;38.790;-77.084;2023-08-07T12:14:22;100931.89;;;26.36;55.60
47809;BME280;33573;38.790;-77.084;2023-08-07T12:16:47;100933.95;;;26.56;54.74
47809;BME280;33573;38.790;-77.084;2023-08-07T12:19:13;100935.57;;;25.81;57.12